sensor_id;sensor_type;location;lat;lon;timestamp;temperature;humidity
55711;DHT22;41612;51.994;5.880;2024-01-30T00:00:34;8.60;83.10
55711;DHT22;41612;51.994;5.880;2024-01-30T00:03:00;8.50;83.20
55711;DHT22;41612;51.994;5.880;2024-01-30T00:05:28;8.50;83.30
55711;DHT22;41612;51.994;5.880;2024-01-30T00:07:56;8.50;83.50
55711;DHT22;41612;51.994;5.880;2024-01-30T00:10:22;8.50;83.70
55711;DHT22;41612;51.994;5.880;2024-01-30T00:12:47;8.50;83.60
55711;DHT22;41612;51.994;5.880;2024-01-30T00:15:13;8.50;83.60
55711;DHT22;41612;51.994;5.880;2024-01-30T00:17:40;8.50;83.40
55711;DHT22;41612;51.994;5.880;2024-01-30T00:20:06;8.40;83.60
55711;DHT22;41612;51.994;5.880;2024-01-30T00:22:35;8.40;83.60
55711;DHT22;41612;51.994;5.880;2024-01-30T00:25:01;8.40;83.50
55711;DHT22;41612;51.994;5.880;2024-01-30T00:27:26;8.40;83.50
55711;DHT22;41612;51.994;5.880;2024-01-30T00:29:53;8.40;83.40
55711;DHT22;41612;51.994;5.880;2024-01-30T00:32:19;8.30;83.40
55711;DHT22;41612;51.994;5.880;2024-01-30T00:34:46;8.20;83.40
55711;DHT22;41612;51.994;5.880;2024-01-30T00:37:12;8.20;83.30
55711;DHT22;41612;51.994;5.880;2024-01-30T00:39:38;8.20;83.40
55711;DHT22;41612;51.994;5.880;2024-01-30T00:42:03;8.20;83.30
55711;DHT22;41612;51.994;5.880;2024-01-30T00:44:30;8.10;83.50
55711;DHT22;41612;51.994;5.880;2024-01-30T00:46:56;8.10;83.50
55711;DHT22;41612;51.994;5.880;2024-01-30T00:49:21;8.10;83.60
55711;DHT22;41612;51.994;5.880;2024-01-30T00:51:47;8.10;83.90
55711;DHT22;41612;51.994;5.880;2024-01-30T00:54:12;8.10;84.00
55711;DHT22;41612;51.994;5.880;2024-01-30T00:56:41;8.20;84.20
55711;DHT22;41612;51.994;5.880;2024-01-30T00:59:07;8.20;84.10
55711;DHT22;41612;51.994;5.880;2024-01-30T01:01:33;8.10;84.00
55711;DHT22;41612;51.994;5.880;2024-01-30T01:03:59;8.10;84.00
55711;DHT22;41612;51.994;5.880;2024-01-30T01:06:24;8.10;84.10
55711;DHT22;41612;51.994;5.880;2024-01-30T01:08:50;8.10;84.10
55711;DHT22;41612;51.994;5.880;2024-01-30T01:11:18;8.10;83.90
55711;DHT22;41612;51.994;5.880;2024-01-30T01:13:45;8.10;83.90
55711;DHT22;41612;51.994;5.880;2024-01-30T01:16:10;8.10;84.00
55711;DHT22;41612;51.994;5.880;2024-01-30T01:18:36;8.00;84.00
55711;DHT22;41612;51.994;5.880;2024-01-30T01:21:02;8.00;84.00
55711;DHT22;41612;51.994;5.880;2024-01-30T01:23:27;8.00;83.90
55711;DHT22;41612;51.994;5.880;2024-01-30T01:25:53;7.90;83.80
55711;DHT22;41612;51.994;5.880;2024-01-30T01:28:24;7.90;83.90
55711;DHT22;41612;51.994;5.880;2024-01-30T01:30:49;7.90;83.90
55711;DHT22;41612;51.994;5.880;2024-01-30T01:33:17;7.90;83.80
55711;DHT22;41612;51.994;5.880;2024-01-30T01:35:43;7.80;83.80
55711;DHT22;41612;51.994;5.880;2024-01-30T01:38:10;7.80;83.90
55711;DHT22;41612;51.994;5.880;2024-01-30T01:40:40;7.80;84.00
55711;DHT22;41612;51.994;5.880;2024-01-30T01:43:08;7.70;84.00
55711;DHT22;41612;51.994;5.880;2024-01-30T01:45:34;7.70;84.10
55711;DHT22;41612;51.994;5.880;2024-01-30T01:48:00;7.70;84.10
55711;DHT22;41612;51.994;5.880;2024-01-30T01:50:27;7.70;84.10
55711;DHT22;41612;51.994;5.880;2024-01-30T01:52:58;7.70;84.10
55711;DHT22;41612;51.994;5.880;2024-01-30T01:55:24;7.70;84.10
55711;DHT22;41612;51.994;5.880;2024-01-30T01:57:53;7.70;84.10
55711;DHT22;41612;51.994;5.880;2024-01-30T02:00:19;7.70;84.00
55711;DHT22;41612;51.994;5.880;2024-01-30T02:02:46;7.80;84.00
55711;DHT22;41612;51.994;5.880;2024-01-30T02:05:12;7.70;84.10
55711;DHT22;41612;51.994;5.880;2024-01-30T02:07:38;7.70;84.20
55711;DHT22;41612;51.994;5.880;2024-01-30T02:10:04;7.70;84.20
55711;DHT22;41612;51.994;5.880;2024-01-30T02:12:30;7.70;84.00
55711;DHT22;41612;51.994;5.880;2024-01-30T02:14:56;7.70;84.00
55711;DHT22;41612;51.994;5.880;2024-01-30T02:17:21;7.70;84.00
55711;DHT22;41612;51.994;5.880;2024-01-30T02:19:49;7.70;84.00
55711;DHT22;41612;51.994;5.880;2024-01-30T02:22:15;7.70;84.10
55711;DHT22;41612;51.994;5.880;2024-01-30T02:24:40;7.60;84.20
55711;DHT22;41612;51.994;5.880;2024-01-30T02:27:06;7.60;84.20
55711;DHT22;41612;51.994;5.880;2024-01-30T02:29:31;7.60;84.40
55711;DHT22;41612;51.994;5.880;2024-01-30T02:31:57;7.60;84.40
55711;DHT22;41612;51.994;5.880;2024-01-30T02:34:24;7.60;84.60
55711;DHT22;41612;51.994;5.880;2024-01-30T02:36:49;7.60;84.60
55711;DHT22;41612;51.994;5.880;2024-01-30T02:39:15;7.60;84.50
55711;DHT22;41612;51.994;5.880;2024-01-30T02:41:40;7.60;84.50
55711;DHT22;41612;51.994;5.880;2024-01-30T02:44:06;7.50;84.50
55711;DHT22;41612;51.994;5.880;2024-01-30T02:46:32;7.60;84.60
55711;DHT22;41612;51.994;5.880;2024-01-30T02:48:57;7.60;84.50
55711;DHT22;41612;51.994;5.880;2024-01-30T02:51:23;7.60;84.40
55711;DHT22;41612;51.994;5.880;2024-01-30T02:53:49;7.60;84.40
55711;DHT22;41612;51.994;5.880;2024-01-30T02:56:14;7.50;84.30
55711;DHT22;41612;51.994;5.880;2024-01-30T02:58:40;7.50;84.30
55711;DHT22;41612;51.994;5.880;2024-01-30T03:01:06;7.50;84.20
55711;DHT22;41612;51.994;5.880;2024-01-30T03:03:36;7.50;84.10
55711;DHT22;41612;51.994;5.880;2024-01-30T03:06:05;7.50;84.10
55711;DHT22;41612;51.994;5.880;2024-01-30T03:08:33;7.50;84.10
55711;DHT22;41612;51.994;5.880;2024-01-30T03:11:00;7.40;84.00
55711;DHT22;41612;51.994;5.880;2024-01-30T03:13:27;7.40;83.90
55711;DHT22;41612;51.994;5.880;2024-01-30T03:15:52;7.40;83.90
55711;DHT22;41612;51.994;5.880;2024-01-30T03:18:19;7.40;83.90
55711;DHT22;41612;51.994;5.880;2024-01-30T03:20:44;7.40;83.90
55711;DHT22;41612;51.994;5.880;2024-01-30T03:23:10;7.30;83.80
55711;DHT22;41612;51.994;5.880;2024-01-30T03:25:35;7.30;83.80
55711;DHT22;41612;51.994;5.880;2024-01-30T03:28:01;7.30;83.90
55711;DHT22;41612;51.994;5.880;2024-01-30T03:30:27;7.30;83.90
55711;DHT22;41612;51.994;5.880;2024-01-30T03:32:53;7.30;83.90
55711;DHT22;41612;51.994;5.880;2024-01-30T03:35:19;7.30;84.00
55711;DHT22;41612;51.994;5.880;2024-01-30T03:37:47;7.20;84.10
55711;DHT22;41612;51.994;5.880;2024-01-30T03:40:13;7.30;84.20
55711;DHT22;41612;51.994;5.880;2024-01-30T03:42:43;7.30;84.10
55711;DHT22;41612;51.994;5.880;2024-01-30T03:45:09;7.20;84.20
55711;DHT22;41612;51.994;5.880;2024-01-30T03:47:36;7.30;84.20
55711;DHT22;41612;51.994;5.880;2024-01-30T03:50:01;7.20;84.40
55711;DHT22;41612;51.994;5.880;2024-01-30T03:52:27;7.30;84.50
55711;DHT22;41612;51.994;5.880;2024-01-30T03:54:53;7.30;84.50
55711;DHT22;41612;51.994;5.880;2024-01-30T03:57:19;7.30;84.60
55711;DHT22;41612;51.994;5.880;2024-01-30T03:59:45;7.30;84.50
55711;DHT22;41612;51.994;5.880;2024-01-30T04:02:11;7.30;84.40
55711;DHT22;41612;51.994;5.880;2024-01-30T04:04:37;7.20;84.40
55711;DHT22;41612;51.994;5.880;2024-01-30T04:07:03;7.30;84.50
55711;DHT22;41612;51.994;5.880;2024-01-30T04:09:30;7.30;84.50
55711;DHT22;41612;51.994;5.880;2024-01-30T04:11:56;7.30;84.50
55711;DHT22;41612;51.994;5.880;2024-01-30T04:14:21;7.40;84.40
55711;DHT22;41612;51.994;5.880;2024-01-30T04:16:48;7.40;84.30
55711;DHT22;41612;51.994;5.880;2024-01-30T04:19:17;7.40;84.20
55711;DHT22;41612;51.994;5.880;2024-01-30T04:21:42;7.40;84.20
55711;DHT22;41612;51.994;5.880;2024-01-30T04:24:08;7.40;84.20
55711;DHT22;41612;51.994;5.880;2024-01-30T04:26:34;7.40;84.40
55711;DHT22;41612;51.994;5.880;2024-01-30T04:28:59;7.50;84.40
55711;DHT22;41612;51.994;5.880;2024-01-30T04:31:28;7.50;84.40
55711;DHT22;41612;51.994;5.880;2024-01-30T04:33:53;7.50;84.20
55711;DHT22;41612;51.994;5.880;2024-01-30T04:36:20;7.50;84.30
55711;DHT22;41612;51.994;5.880;2024-01-30T04:38:49;7.60;84.20
55711;DHT22;41612;51.994;5.880;2024-01-30T04:41:16;7.60;84.10
55711;DHT22;41612;51.994;5.880;2024-01-30T04:43:42;7.60;84.10
55711;DHT22;41612;51.994;5.880;2024-01-30T04:46:08;7.60;84.10
55711;DHT22;41612;51.994;5.880;2024-01-30T04:48:36;7.60;84.00
55711;DHT22;41612;51.994;5.880;2024-01-30T04:51:03;7.70;84.00
55711;DHT22;41612;51.994;5.880;2024-01-30T04:53:30;7.60;83.90
55711;DHT22;41612;51.994;5.880;2024-01-30T04:55:57;7.70;83.90
55711;DHT22;41612;51.994;5.880;2024-01-30T04:58:22;7.70;83.70
55711;DHT22;41612;51.994;5.880;2024-01-30T05:00:48;7.70;83.80
55711;DHT22;41612;51.994;5.880;2024-01-30T05:03:18;7.70;84.00
55711;DHT22;41612;51.994;5.880;2024-01-30T05:05:44;7.70;83.90
55711;DHT22;41612;51.994;5.880;2024-01-30T05:08:12;7.70;84.00
55711;DHT22;41612;51.994;5.880;2024-01-30T05:10:38;7.80;84.00
55711;DHT22;41612;51.994;5.880;2024-01-30T05:13:04;7.70;84.00
55711;DHT22;41612;51.994;5.880;2024-01-30T05:15:29;7.80;84.00
55711;DHT22;41612;51.994;5.880;2024-01-30T05:17:55;7.80;84.00
55711;DHT22;41612;51.994;5.880;2024-01-30T05:20:22;7.80;84.00
55711;DHT22;41612;51.994;5.880;2024-01-30T05:22:51;7.90;83.90
55711;DHT22;41612;51.994;5.880;2024-01-30T05:25:23;7.90;83.70
55711;DHT22;41612;51.994;5.880;2024-01-30T05:27:50;8.00;83.80
55711;DHT22;41612;51.994;5.880;2024-01-30T05:30:15;8.00;83.70
55711;DHT22;41612;51.994;5.880;2024-01-30T05:32:43;8.00;83.70
55711;DHT22;41612;51.994;5.880;2024-01-30T05:35:11;8.10;83.70
55711;DHT22;41612;51.994;5.880;2024-01-30T05:37:37;8.00;83.60
55711;DHT22;41612;51.994;5.880;2024-01-30T05:40:08;8.10;83.60
55711;DHT22;41612;51.994;5.880;2024-01-30T05:42:34;8.10;83.60
55711;DHT22;41612;51.994;5.880;2024-01-30T05:44:59;8.20;83.60
55711;DHT22;41612;51.994;5.880;2024-01-30T05:47:25;8.20;83.20
55711;DHT22;41612;51.994;5.880;2024-01-30T05:49:51;8.20;83.40
55711;DHT22;41612;51.994;5.880;2024-01-30T05:52:18;8.30;83.40
55711;DHT22;41612;51.994;5.880;2024-01-30T05:54:44;8.30;83.30
55711;DHT22;41612;51.994;5.880;2024-01-30T05:57:10;8.30;83.20
55711;DHT22;41612;51.994;5.880;2024-01-30T05:59:35;8.40;83.10
55711;DHT22;41612;51.994;5.880;2024-01-30T06:02:01;8.30;83.00
55711;DHT22;41612;51.994;5.880;2024-01-30T06:04:27;8.30;82.90
55711;DHT22;41612;51.994;5.880;2024-01-30T06:06:53;8.30;83.00
55711;DHT22;41612;51.994;5.880;2024-01-30T06:09:18;8.30;83.10
55711;DHT22;41612;51.994;5.880;2024-01-30T06:11:45;8.40;83.00
55711;DHT22;41612;51.994;5.880;2024-01-30T06:14:11;8.40;82.80
55711;DHT22;41612;51.994;5.880;2024-01-30T06:16:36;8.40;82.90
55711;DHT22;41612;51.994;5.880;2024-01-30T06:19:02;8.40;83.00
55711;DHT22;41612;51.994;5.880;2024-01-30T06:21:28;8.40;82.90
55711;DHT22;41612;51.994;5.880;2024-01-30T06:23:53;8.40;82.90
55711;DHT22;41612;51.994;5.880;2024-01-30T06:26:19;8.50;82.70
55711;DHT22;41612;51.994;5.880;2024-01-30T06:28:47;8.50;82.90
55711;DHT22;41612;51.994;5.880;2024-01-30T06:31:13;8.50;82.80
55711;DHT22;41612;51.994;5.880;2024-01-30T06:33:38;8.50;82.70
55711;DHT22;41612;51.994;5.880;2024-01-30T06:36:04;8.50;82.90
55711;DHT22;41612;51.994;5.880;2024-01-30T06:38:30;8.50;82.90
55711;DHT22;41612;51.994;5.880;2024-01-30T06:40:55;8.50;82.90
55711;DHT22;41612;51.994;5.880;2024-01-30T06:43:22;8.50;83.00
55711;DHT22;41612;51.994;5.880;2024-01-30T06:45:47;8.60;82.90
55711;DHT22;41612;51.994;5.880;2024-01-30T06:48:13;8.60;82.90
55711;DHT22;41612;51.994;5.880;2024-01-30T06:50:39;8.70;83.00
55711;DHT22;41612;51.994;5.880;2024-01-30T06:53:04;8.70;82.80
55711;DHT22;41612;51.994;5.880;2024-01-30T06:55:35;8.70;82.80
55711;DHT22;41612;51.994;5.880;2024-01-30T06:58:01;8.80;82.80
55711;DHT22;41612;51.994;5.880;2024-01-30T07:00:27;8.80;82.70
55711;DHT22;41612;51.994;5.880;2024-01-30T07:02:52;8.80;82.60
55711;DHT22;41612;51.994;5.880;2024-01-30T07:05:18;8.80;82.60
55711;DHT22;41612;51.994;5.880;2024-01-30T07:07:47;8.80;82.70
55711;DHT22;41612;51.994;5.880;2024-01-30T07:10:13;8.90;82.90
55711;DHT22;41612;51.994;5.880;2024-01-30T07:12:40;8.90;82.50
55711;DHT22;41612;51.994;5.880;2024-01-30T07:15:06;9.00;82.40
55711;DHT22;41612;51.994;5.880;2024-01-30T07:17:34;9.00;82.00
55711;DHT22;41612;51.994;5.880;2024-01-30T07:20:00;9.10;82.00
55711;DHT22;41612;51.994;5.880;2024-01-30T07:22:30;9.10;82.00
55711;DHT22;41612;51.994;5.880;2024-01-30T07:24:56;9.10;82.00
55711;DHT22;41612;51.994;5.880;2024-01-30T07:27:23;9.20;81.90
55711;DHT22;41612;51.994;5.880;2024-01-30T07:29:50;9.10;81.90
55711;DHT22;41612;51.994;5.880;2024-01-30T07:32:15;9.10;81.80
55711;DHT22;41612;51.994;5.880;2024-01-30T07:34:41;9.20;81.90
55711;DHT22;41612;51.994;5.880;2024-01-30T07:37:08;9.20;81.80
55711;DHT22;41612;51.994;5.880;2024-01-30T07:39:34;9.20;81.80
55711;DHT22;41612;51.994;5.880;2024-01-30T07:42:01;9.10;81.80
55711;DHT22;41612;51.994;5.880;2024-01-30T07:44:27;9.20;82.00
55711;DHT22;41612;51.994;5.880;2024-01-30T07:46:53;9.20;81.90
55711;DHT22;41612;51.994;5.880;2024-01-30T07:49:18;9.20;81.90
55711;DHT22;41612;51.994;5.880;2024-01-30T07:51:45;9.20;81.50
55711;DHT22;41612;51.994;5.880;2024-01-30T07:54:12;9.20;81.80
55711;DHT22;41612;51.994;5.880;2024-01-30T07:56:39;9.20;82.10
55711;DHT22;41612;51.994;5.880;2024-01-30T07:59:05;9.30;82.00
55711;DHT22;41612;51.994;5.880;2024-01-30T08:01:31;9.30;82.00
55711;DHT22;41612;51.994;5.880;2024-01-30T08:03:57;9.30;81.60
55711;DHT22;41612;51.994;5.880;2024-01-30T08:06:22;9.30;81.40
55711;DHT22;41612;51.994;5.880;2024-01-30T08:08:48;9.30;81.60
55711;DHT22;41612;51.994;5.880;2024-01-30T08:11:15;9.30;82.00
55711;DHT22;41612;51.994;5.880;2024-01-30T08:13:41;9.40;81.90
55711;DHT22;41612;51.994;5.880;2024-01-30T08:16:07;9.40;81.40
55711;DHT22;41612;51.994;5.880;2024-01-30T08:18:33;9.50;81.50
55711;DHT22;41612;51.994;5.880;2024-01-30T08:20:58;9.50;81.10
55711;DHT22;41612;51.994;5.880;2024-01-30T08:23:24;9.60;81.20
55711;DHT22;41612;51.994;5.880;2024-01-30T08:25:50;9.60;80.80
55711;DHT22;41612;51.994;5.880;2024-01-30T08:28:16;9.60;80.70
55711;DHT22;41612;51.994;5.880;2024-01-30T08:30:42;9.70;81.00
55711;DHT22;41612;51.994;5.880;2024-01-30T08:33:11;9.70;81.20
55711;DHT22;41612;51.994;5.880;2024-01-30T08:35:37;9.70;80.80
55711;DHT22;41612;51.994;5.880;2024-01-30T08:38:03;9.70;80.90
55711;DHT22;41612;51.994;5.880;2024-01-30T08:40:29;9.80;81.10
55711;DHT22;41612;51.994;5.880;2024-01-30T08:42:56;9.80;80.80
55711;DHT22;41612;51.994;5.880;2024-01-30T08:45:22;9.80;81.00
55711;DHT22;41612;51.994;5.880;2024-01-30T08:47:48;9.80;81.10
55711;DHT22;41612;51.994;5.880;2024-01-30T08:50:14;9.90;80.90
55711;DHT22;41612;51.994;5.880;2024-01-30T08:52:43;9.90;80.30
55711;DHT22;41612;51.994;5.880;2024-01-30T08:55:11;9.90;80.80
55711;DHT22;41612;51.994;5.880;2024-01-30T08:57:37;10.00;80.90
55711;DHT22;41612;51.994;5.880;2024-01-30T09:00:04;10.00;80.80
55711;DHT22;41612;51.994;5.880;2024-01-30T09:02:34;10.00;80.80
55711;DHT22;41612;51.994;5.880;2024-01-30T09:05:03;10.00;81.00
55711;DHT22;41612;51.994;5.880;2024-01-30T09:07:29;10.00;80.90
55711;DHT22;41612;51.994;5.880;2024-01-30T09:09:55;10.00;80.60
55711;DHT22;41612;51.994;5.880;2024-01-30T09:12:23;10.10;80.50
55711;DHT22;41612;51.994;5.880;2024-01-30T09:14:54;10.10;80.20
55711;DHT22;41612;51.994;5.880;2024-01-30T09:17:21;10.10;80.50
55711;DHT22;41612;51.994;5.880;2024-01-30T09:19:47;10.20;80.20
55711;DHT22;41612;51.994;5.880;2024-01-30T09:22:15;10.20;80.30
55711;DHT22;41612;51.994;5.880;2024-01-30T09:24:41;10.20;80.30
55711;DHT22;41612;51.994;5.880;2024-01-30T09:27:09;10.20;80.60
55711;DHT22;41612;51.994;5.880;2024-01-30T09:29:35;10.20;80.70
55711;DHT22;41612;51.994;5.880;2024-01-30T09:32:01;10.30;80.40
55711;DHT22;41612;51.994;5.880;2024-01-30T09:34:27;10.30;80.70
55711;DHT22;41612;51.994;5.880;2024-01-30T09:36:53;10.30;80.00
55711;DHT22;41612;51.994;5.880;2024-01-30T09:39:21;10.30;80.30
55711;DHT22;41612;51.994;5.880;2024-01-30T09:44:43;10.40;80.30
55711;DHT22;41612;51.994;5.880;2024-01-30T09:47:10;10.30;80.50
55711;DHT22;41612;51.994;5.880;2024-01-30T09:49:36;10.40;79.70
55711;DHT22;41612;51.994;5.880;2024-01-30T09:52:05;10.40;80.10
55711;DHT22;41612;51.994;5.880;2024-01-30T09:54:31;10.50;79.80
55711;DHT22;41612;51.994;5.880;2024-01-30T09:57:00;10.50;80.10
55711;DHT22;41612;51.994;5.880;2024-01-30T09:59:26;10.40;80.00
55711;DHT22;41612;51.994;5.880;2024-01-30T10:01:51;10.50;80.40
55711;DHT22;41612;51.994;5.880;2024-01-30T10:04:17;10.50;80.50
55711;DHT22;41612;51.994;5.880;2024-01-30T10:06:43;10.60;80.60
55711;DHT22;41612;51.994;5.880;2024-01-30T10:09:09;10.60;80.20
55711;DHT22;41612;51.994;5.880;2024-01-30T10:11:38;10.60;80.20
55711;DHT22;41612;51.994;5.880;2024-01-30T10:14:04;10.70;80.70
55711;DHT22;41612;51.994;5.880;2024-01-30T10:16:30;10.70;80.10
55711;DHT22;41612;51.994;5.880;2024-01-30T10:18:56;10.80;80.10
55711;DHT22;41612;51.994;5.880;2024-01-30T10:21:23;10.80;80.30
55711;DHT22;41612;51.994;5.880;2024-01-30T10:23:49;10.80;80.60
55711;DHT22;41612;51.994;5.880;2024-01-30T10:26:17;10.80;80.20
55711;DHT22;41612;51.994;5.880;2024-01-30T10:28:44;10.80;80.60
55711;DHT22;41612;51.994;5.880;2024-01-30T10:31:10;10.80;80.60
55711;DHT22;41612;51.994;5.880;2024-01-30T10:33:36;10.80;80.40
55711;DHT22;41612;51.994;5.880;2024-01-30T10:36:04;10.80;80.70
55711;DHT22;41612;51.994;5.880;2024-01-30T10:38:32;10.90;80.90
55711;DHT22;41612;51.994;5.880;2024-01-30T10:41:00;10.90;79.20
55711;DHT22;41612;51.994;5.880;2024-01-30T10:43:40;10.90;80.40
55711;DHT22;41612;51.994;5.880;2024-01-30T10:46:18;11.00;79.10
55711;DHT22;41612;51.994;5.880;2024-01-30T10:48:58;11.10;79.50
55711;DHT22;41612;51.994;5.880;2024-01-30T10:51:27;11.10;78.20
55711;DHT22;41612;51.994;5.880;2024-01-30T10:53:56;11.10;80.20
55711;DHT22;41612;51.994;5.880;2024-01-30T10:56:24;11.20;79.00
55711;DHT22;41612;51.994;5.880;2024-01-30T10:58:51;11.20;79.20
55711;DHT22;41612;51.994;5.880;2024-01-30T11:01:21;11.20;79.40
55711;DHT22;41612;51.994;5.880;2024-01-30T11:03:55;11.30;78.30
55711;DHT22;41612;51.994;5.880;2024-01-30T11:06:23;11.30;79.10
55711;DHT22;41612;51.994;5.880;2024-01-30T11:09:02;11.40;79.20
55711;DHT22;41612;51.994;5.880;2024-01-30T11:11:30;11.50;79.20
55711;DHT22;41612;51.994;5.880;2024-01-30T11:14:00;11.60;79.40
55711;DHT22;41612;51.994;5.880;2024-01-30T11:16:31;11.80;78.90
55711;DHT22;41612;51.994;5.880;2024-01-30T11:19:00;12.10;78.90
55711;DHT22;41612;51.994;5.880;2024-01-30T11:21:26;12.40;77.40
55711;DHT22;41612;51.994;5.880;2024-01-30T11:23:52;12.50;77.10
55711;DHT22;41612;51.994;5.880;2024-01-30T11:26:30;12.40;76.50
55711;DHT22;41612;51.994;5.880;2024-01-30T11:29:04;12.40;76.30
55711;DHT22;41612;51.994;5.880;2024-01-30T11:31:32;12.30;75.70
55711;DHT22;41612;51.994;5.880;2024-01-30T11:34:07;12.20;76.70
55711;DHT22;41612;51.994;5.880;2024-01-30T11:36:36;12.10;76.80
55711;DHT22;41612;51.994;5.880;2024-01-30T11:39:03;12.00;77.60
55711;DHT22;41612;51.994;5.880;2024-01-30T11:41:32;12.00;77.90
55711;DHT22;41612;51.994;5.880;2024-01-30T11:43:58;11.90;77.50
55711;DHT22;41612;51.994;5.880;2024-01-30T11:46:27;11.90;77.70
55711;DHT22;41612;51.994;5.880;2024-01-30T11:48:56;12.00;77.50
55711;DHT22;41612;51.994;5.880;2024-01-30T11:51:22;12.00;76.10
55711;DHT22;41612;51.994;5.880;2024-01-30T11:53:53;12.20;77.00
55711;DHT22;41612;51.994;5.880;2024-01-30T11:56:26;12.20;76.50
55711;DHT22;41612;51.994;5.880;2024-01-30T11:58:52;12.50;75.90
55711;DHT22;41612;51.994;5.880;2024-01-30T12:01:23;12.70;75.50
55711;DHT22;41612;51.994;5.880;2024-01-30T12:03:51;12.80;74.80
55711;DHT22;41612;51.994;5.880;2024-01-30T12:06:20;12.80;73.30
55711;DHT22;41612;51.994;5.880;2024-01-30T12:09:03;12.70;72.90
55711;DHT22;41612;51.994;5.880;2024-01-30T12:11:47;12.60;73.60
55711;DHT22;41612;51.994;5.880;2024-01-30T12:14:13;12.60;74.20
55711;DHT22;41612;51.994;5.880;2024-01-30T12:16:39;12.70;73.40
55711;DHT22;41612;51.994;5.880;2024-01-30T12:19:29;12.90;72.90
55711;DHT22;41612;51.994;5.880;2024-01-30T12:22:01;13.20;72.20
55711;DHT22;41612;51.994;5.880;2024-01-30T12:24:28;13.80;71.00
55711;DHT22;41612;51.994;5.880;2024-01-30T12:26:59;14.60;67.90
55711;DHT22;41612;51.994;5.880;2024-01-30T12:29:31;15.00;65.90
55711;DHT22;41612;51.994;5.880;2024-01-30T12:32:01;14.90;65.10
55711;DHT22;41612;51.994;5.880;2024-01-30T12:34:27;14.50;65.50
55711;DHT22;41612;51.994;5.880;2024-01-30T12:36:53;14.00;66.60
55711;DHT22;41612;51.994;5.880;2024-01-30T12:39:19;13.60;67.50
55711;DHT22;41612;51.994;5.880;2024-01-30T12:41:47;13.20;69.30
55711;DHT22;41612;51.994;5.880;2024-01-30T12:44:14;12.90;69.60
55711;DHT22;41612;51.994;5.880;2024-01-30T12:46:42;12.70;69.70
55711;DHT22;41612;51.994;5.880;2024-01-30T12:49:08;12.50;70.50
55711;DHT22;41612;51.994;5.880;2024-01-30T12:51:34;12.40;70.90
55711;DHT22;41612;51.994;5.880;2024-01-30T12:54:05;12.30;71.30
55711;DHT22;41612;51.994;5.880;2024-01-30T12:56:30;12.20;71.10
55711;DHT22;41612;51.994;5.880;2024-01-30T12:58:56;12.20;70.90
55711;DHT22;41612;51.994;5.880;2024-01-30T13:01:27;12.20;70.80
55711;DHT22;41612;51.994;5.880;2024-01-30T13:04:04;12.20;70.80
55711;DHT22;41612;51.994;5.880;2024-01-30T13:06:31;12.20;70.80
55711;DHT22;41612;51.994;5.880;2024-01-30T13:08:56;12.00;70.80
55711;DHT22;41612;51.994;5.880;2024-01-30T13:11:22;12.00;71.20
55711;DHT22;41612;51.994;5.880;2024-01-30T13:13:50;12.00;71.50
55711;DHT22;41612;51.994;5.880;2024-01-30T13:16:16;12.10;71.40
55711;DHT22;41612;51.994;5.880;2024-01-30T13:18:44;12.30;71.00
55711;DHT22;41612;51.994;5.880;2024-01-30T13:21:13;12.50;70.50
55711;DHT22;41612;51.994;5.880;2024-01-30T13:23:39;12.80;69.20
55711;DHT22;41612;51.994;5.880;2024-01-30T13:26:04;12.90;68.40
55711;DHT22;41612;51.994;5.880;2024-01-30T13:28:30;13.00;68.20
55711;DHT22;41612;51.994;5.880;2024-01-30T13:30:56;13.20;67.10
55711;DHT22;41612;51.994;5.880;2024-01-30T13:33:23;13.40;64.70
55711;DHT22;41612;51.994;5.880;2024-01-30T13:35:48;13.30;64.50
55711;DHT22;41612;51.994;5.880;2024-01-30T13:38:14;13.00;65.40
55711;DHT22;41612;51.994;5.880;2024-01-30T13:40:41;12.60;66.20
55711;DHT22;41612;51.994;5.880;2024-01-30T13:43:06;12.10;67.60
55711;DHT22;41612;51.994;5.880;2024-01-30T13:45:32;11.80;68.60
55711;DHT22;41612;51.994;5.880;2024-01-30T13:47:58;11.50;69.50
55711;DHT22;41612;51.994;5.880;2024-01-30T13:50:25;11.40;71.00
55711;DHT22;41612;51.994;5.880;2024-01-30T13:52:50;11.30;72.00
55711;DHT22;41612;51.994;5.880;2024-01-30T13:55:16;11.20;72.70
55711;DHT22;41612;51.994;5.880;2024-01-30T13:57:42;11.10;73.40
55711;DHT22;41612;51.994;5.880;2024-01-30T14:00:08;11.10;74.20
55711;DHT22;41612;51.994;5.880;2024-01-30T14:02:40;11.00;73.80
55711;DHT22;41612;51.994;5.880;2024-01-30T14:05:06;10.90;73.70
55711;DHT22;41612;51.994;5.880;2024-01-30T14:07:38;10.80;73.90
55711;DHT22;41612;51.994;5.880;2024-01-30T14:10:09;10.70;74.50
55711;DHT22;41612;51.994;5.880;2024-01-30T14:12:39;10.60;75.10
55711;DHT22;41612;51.994;5.880;2024-01-30T14:15:07;10.50;74.80
55711;DHT22;41612;51.994;5.880;2024-01-30T14:17:33;10.40;75.10
55711;DHT22;41612;51.994;5.880;2024-01-30T14:19:59;10.40;75.30
55711;DHT22;41612;51.994;5.880;2024-01-30T14:22:25;10.50;75.00
55711;DHT22;41612;51.994;5.880;2024-01-30T14:24:55;10.50;74.70
55711;DHT22;41612;51.994;5.880;2024-01-30T14:27:22;10.50;75.00
55711;DHT22;41612;51.994;5.880;2024-01-30T14:29:47;10.50;75.00
55711;DHT22;41612;51.994;5.880;2024-01-30T14:32:17;10.50;75.00
55711;DHT22;41612;51.994;5.880;2024-01-30T14:34:45;10.50;74.90
55711;DHT22;41612;51.994;5.880;2024-01-30T14:37:11;10.40;75.30
55711;DHT22;41612;51.994;5.880;2024-01-30T14:39:39;10.40;75.20
55711;DHT22;41612;51.994;5.880;2024-01-30T14:42:09;10.40;75.90
55711;DHT22;41612;51.994;5.880;2024-01-30T14:44:35;10.50;75.50
55711;DHT22;41612;51.994;5.880;2024-01-30T14:47:03;10.50;75.40
55711;DHT22;41612;51.994;5.880;2024-01-30T14:49:29;10.50;75.60
55711;DHT22;41612;51.994;5.880;2024-01-30T14:51:55;10.50;75.00
55711;DHT22;41612;51.994;5.880;2024-01-30T14:54:22;10.40;75.60
55711;DHT22;41612;51.994;5.880;2024-01-30T14:56:48;10.30;76.10
55711;DHT22;41612;51.994;5.880;2024-01-30T14:59:13;10.20;76.00
55711;DHT22;41612;51.994;5.880;2024-01-30T15:01:39;10.10;76.40
55711;DHT22;41612;51.994;5.880;2024-01-30T15:04:05;10.00;76.90
55711;DHT22;41612;51.994;5.880;2024-01-30T15:06:30;10.00;77.50
55711;DHT22;41612;51.994;5.880;2024-01-30T15:08:56;10.00;77.90
55711;DHT22;41612;51.994;5.880;2024-01-30T15:11:22;10.00;78.00
55711;DHT22;41612;51.994;5.880;2024-01-30T15:13:48;10.00;78.20
55711;DHT22;41612;51.994;5.880;2024-01-30T15:16:14;9.90;78.10
55711;DHT22;41612;51.994;5.880;2024-01-30T15:18:39;9.90;78.20
55711;DHT22;41612;51.994;5.880;2024-01-30T15:21:05;9.90;78.00
55711;DHT22;41612;51.994;5.880;2024-01-30T15:23:31;9.90;78.50
55711;DHT22;41612;51.994;5.880;2024-01-30T15:25:56;9.90;78.70
55711;DHT22;41612;51.994;5.880;2024-01-30T15:28:34;9.80;78.50
55711;DHT22;41612;51.994;5.880;2024-01-30T15:31:00;9.80;78.80
55711;DHT22;41612;51.994;5.880;2024-01-30T15:33:26;9.70;79.00
55711;DHT22;41612;51.994;5.880;2024-01-30T15:35:52;9.70;79.10
55711;DHT22;41612;51.994;5.880;2024-01-30T15:38:22;9.70;79.00
55711;DHT22;41612;51.994;5.880;2024-01-30T15:40:48;9.70;79.30